sensor_id;sensor_type;location;lat;lon;timestamp;pressure;altitude;pressure_sealevel;temperature
45976;BMP280;31696;42.668;23.322;2023-05-10T00:01:05;94965.94;;;9.46
45976;BMP280;31696;42.668;23.322;2023-05-10T00:03:05;94963.25;;;9.31
45976;BMP280;31696;42.668;23.322;2023-05-10T00:05:06;94964.88;;;9.41
45976;BMP280;31696;42.668;23.322;2023-05-10T00:07:06;94963.69;;;9.71
45976;BMP280;31696;42.668;23.322;2023-05-10T00:09:07;94961.53;;;9.33
45976;BMP280;31696;42.668;23.322;2023-05-10T00:11:07;94957.59;;;9.40
45976;BMP280;31696;42.668;23.322;2023-05-10T00:13:08;94951.59;;;9.73
45976;BMP280;31696;42.668;23.322;2023-05-10T00:15:08;94947.94;;;9.20
45976;BMP280;31696;42.668;23.322;2023-05-10T00:17:08;94956.94;;;9.68
45976;BMP280;31696;42.668;23.322;2023-05-10T00:19:09;94946.69;;;9.98
45976;BMP280;31696;42.668;23.322;2023-05-10T00:21:09;94946.50;;;9.32
45976;BMP280;31696;42.668;23.322;2023-05-10T00:23:10;94948.41;;;9.11
45976;BMP280;31696;42.668;23.322;2023-05-10T00:25:10;94945.97;;;9.33
45976;BMP280;31696;42.668;23.322;2023-05-10T00:27:10;94947.38;;;9.34
45976;BMP280;31696;42.668;23.322;2023-05-10T00:29:11;94947.69;;;9.59
45976;BMP280;31696;42.668;23.322;2023-05-10T00:31:11;94945.81;;;9.60
45976;BMP280;31696;42.668;23.322;2023-05-10T00:33:12;94942.53;;;9.95
45976;BMP280;31696;42.668;23.322;2023-05-10T00:35:12;94943.66;;;9.79
45976;BMP280;31696;42.668;23.322;2023-05-10T00:37:12;94942.88;;;9.91
45976;BMP280;31696;42.668;23.322;2023-05-10T00:39:13;94949.81;;;9.96
45976;BMP280;31696;42.668;23.322;2023-05-10T00:41:13;94946.69;;;9.62
45976;BMP280;31696;42.668;23.322;2023-05-10T00:43:15;94938.25;;;9.69
45976;BMP280;31696;42.668;23.322;2023-05-10T00:45:15;94941.44;;;9.83
45976;BMP280;31696;42.668;23.322;2023-05-10T00:47:16;94937.06;;;9.70
45976;BMP280;31696;42.668;23.322;2023-05-10T00:49:16;94937.88;;;9.93
45976;BMP280;31696;42.668;23.322;2023-05-10T00:51:17;94932.44;;;9.76
45976;BMP280;31696;42.668;23.322;2023-05-10T00:53:18;94926.34;;;10.10
45976;BMP280;31696;42.668;23.322;2023-05-10T00:55:19;94934.16;;;10.25
45976;BMP280;31696;42.668;23.322;2023-05-10T00:57:19;94932.34;;;9.61
45976;BMP280;31696;42.668;23.322;2023-05-10T00:59:20;94935.66;;;9.69
45976;BMP280;31696;42.668;23.322;2023-05-10T01:01:20;94927.94;;;9.48
45976;BMP280;31696;42.668;23.322;2023-05-10T01:03:21;94926.06;;;9.85
45976;BMP280;31696;42.668;23.322;2023-05-10T01:05:22;94928.03;;;9.99
45976;BMP280;31696;42.668;23.322;2023-05-10T01:07:22;94930.09;;;9.93
45976;BMP280;31696;42.668;23.322;2023-05-10T01:09:23;94933.19;;;9.35
45976;BMP280;31696;42.668;23.322;2023-05-10T01:11:26;94924.31;;;9.80
45976;BMP280;31696;42.668;23.322;2023-05-10T01:13:30;94929.78;;;10.05
45976;BMP280;31696;42.668;23.322;2023-05-10T01:15:32;94927.22;;;9.20
45976;BMP280;31696;42.668;23.322;2023-05-10T01:17:33;94924.56;;;9.97
45976;BMP280;31696;42.668;23.322;2023-05-10T01:19:34;94929.41;;;10.00
45976;BMP280;31696;42.668;23.322;2023-05-10T01:21:47;94917.28;;;9.60
45976;BMP280;31696;42.668;23.322;2023-05-10T01:26:10;94902.84;;;9.43
45976;BMP280;31696;42.668;23.322;2023-05-10T01:32:40;94905.16;;;9.55
45976;BMP280;31696;42.668;23.322;2023-05-10T01:37:13;94894.56;;;9.45
45976;BMP280;31696;42.668;23.322;2023-05-10T01:39:17;94906.41;;;9.33
45976;BMP280;31696;42.668;23.322;2023-05-10T01:41:39;94907.69;;;9.19
45976;BMP280;31696;42.668;23.322;2023-05-10T01:43:54;94891.94;;;9.37
45976;BMP280;31696;42.668;23.322;2023-05-10T01:47:58;94884.88;;;9.45
45976;BMP280;31696;42.668;23.322;2023-05-10T01:50:03;94892.84;;;9.19
45976;BMP280;31696;42.668;23.322;2023-05-10T01:52:08;94896.47;;;9.16
45976;BMP280;31696;42.668;23.322;2023-05-10T01:54:10;94894.41;;;9.22
45976;BMP280;31696;42.668;23.322;2023-05-10T01:56:12;94891.13;;;9.42
45976;BMP280;31696;42.668;23.322;2023-05-10T01:58:13;94895.38;;;9.32
45976;BMP280;31696;42.668;23.322;2023-05-10T02:00:14;94889.31;;;8.88
45976;BMP280;31696;42.668;23.322;2023-05-10T02:02:14;94892.97;;;9.14
45976;BMP280;31696;42.668;23.322;2023-05-10T02:04:15;94884.13;;;8.88
45976;BMP280;31696;42.668;23.322;2023-05-10T02:06:17;94901.66;;;9.16
45976;BMP280;31696;42.668;23.322;2023-05-10T02:08:18;94889.38;;;9.17
45976;BMP280;31696;42.668;23.322;2023-05-10T02:10:19;94888.78;;;9.31
45976;BMP280;31696;42.668;23.322;2023-05-10T02:12:20;94887.44;;;8.68
45976;BMP280;31696;42.668;23.322;2023-05-10T02:14:23;94887.50;;;8.97
45976;BMP280;31696;42.668;23.322;2023-05-10T02:16:25;94897.03;;;8.60
45976;BMP280;31696;42.668;23.322;2023-05-10T02:18:26;94896.91;;;8.86
45976;BMP280;31696;42.668;23.322;2023-05-10T02:20:27;94885.94;;;8.39
45976;BMP280;31696;42.668;23.322;2023-05-10T02:22:28;94884.47;;;8.64
45976;BMP280;31696;42.668;23.322;2023-05-10T02:24:29;94903.28;;;8.65
45976;BMP280;31696;42.668;23.322;2023-05-10T02:26:31;94894.69;;;8.36
45976;BMP280;31696;42.668;23.322;2023-05-10T02:28:31;94881.63;;;8.75
45976;BMP280;31696;42.668;23.322;2023-05-10T02:30:33;94885.41;;;8.74
45976;BMP280;31696;42.668;23.322;2023-05-10T02:32:34;94539.03;;;8.09
45976;BMP280;31696;42.668;23.322;2023-05-10T02:34:35;94888.66;;;8.20
45976;BMP280;31696;42.668;23.322;2023-05-10T02:36:36;94895.22;;;8.21
45976;BMP280;31696;42.668;23.322;2023-05-10T02:38:38;94893.38;;;8.42
45976;BMP280;31696;42.668;23.322;2023-05-10T02:40:39;94881.75;;;8.36
45976;BMP280;31696;42.668;23.322;2023-05-10T02:42:41;94882.03;;;8.12
45976;BMP280;31696;42.668;23.322;2023-05-10T02:44:42;94881.25;;;8.04
45976;BMP280;31696;42.668;23.322;2023-05-10T02:46:43;94892.78;;;7.89
45976;BMP280;31696;42.668;23.322;2023-05-10T02:48:43;94875.41;;;7.77
45976;BMP280;31696;42.668;23.322;2023-05-10T02:50:44;94638.69;;;6.48
45976;BMP280;31696;42.668;23.322;2023-05-10T02:52:51;94878.66;;;7.90
45976;BMP280;31696;42.668;23.322;2023-05-10T02:54:58;94871.91;;;7.87
45976;BMP280;31696;42.668;23.322;2023-05-10T02:57:00;94871.63;;;7.78
45976;BMP280;31696;42.668;23.322;2023-05-10T02:59:04;94875.00;;;7.47
45976;BMP280;31696;42.668;23.322;2023-05-10T03:01:05;94871.81;;;7.67
45976;BMP280;31696;42.668;23.322;2023-05-10T03:03:07;94871.03;;;7.72
45976;BMP280;31696;42.668;23.322;2023-05-10T03:05:08;94878.31;;;7.73
45976;BMP280;31696;42.668;23.322;2023-05-10T03:07:09;94886.22;;;8.15
45976;BMP280;31696;42.668;23.322;2023-05-10T03:09:09;94880.88;;;7.60
45976;BMP280;31696;42.668;23.322;2023-05-10T03:15:57;94885.03;;;8.03
45976;BMP280;31696;42.668;23.322;2023-05-10T03:20:11;94888.56;;;8.26
45976;BMP280;31696;42.668;23.322;2023-05-10T03:22:13;94888.81;;;8.35
45976;BMP280;31696;42.668;23.322;2023-05-10T03:24:17;94891.00;;;7.98
45976;BMP280;31696;42.668;23.322;2023-05-10T03:26:23;94878.47;;;8.02
45976;BMP280;31696;42.668;23.322;2023-05-10T03:28:24;94890.34;;;8.18
45976;BMP280;31696;42.668;23.322;2023-05-10T03:30:26;94887.19;;;8.12
45976;BMP280;31696;42.668;23.322;2023-05-10T03:32:26;94893.59;;;8.31
45976;BMP280;31696;42.668;23.322;2023-05-10T03:34:29;94884.44;;;7.97
45976;BMP280;31696;42.668;23.322;2023-05-10T03:36:30;95568.69;;;7.86
45976;BMP280;31696;42.668;23.322;2023-05-10T03:38:30;94893.00;;;7.78
45976;BMP280;31696;42.668;23.322;2023-05-10T03:40:31;94890.59;;;8.07
45976;BMP280;31696;42.668;23.322;2023-05-10T03:42:32;94905.09;;;8.10
45976;BMP280;31696;42.668;23.322;2023-05-10T03:44:32;94897.22;;;8.28
45976;BMP280;31696;42.668;23.322;2023-05-10T03:46:33;94895.28;;;7.95
45976;BMP280;31696;42.668;23.322;2023-05-10T03:48:34;94892.31;;;7.78
45976;BMP280;31696;42.668;23.322;2023-05-10T03:50:34;94900.34;;;7.87
45976;BMP280;31696;42.668;23.322;2023-05-10T03:52:35;94900.34;;;7.87
45976;BMP280;31696;42.668;23.322;2023-05-10T03:54:35;94907.31;;;8.06
45976;BMP280;31696;42.668;23.322;2023-05-10T03:56:36;94909.88;;;8.06
45976;BMP280;31696;42.668;23.322;2023-05-10T03:58:36;94911.28;;;8.07
45976;BMP280;31696;42.668;23.322;2023-05-10T04:00:37;94917.44;;;8.17
45976;BMP280;31696;42.668;23.322;2023-05-10T04:02:44;94912.78;;;7.89
45976;BMP280;31696;42.668;23.322;2023-05-10T04:04:50;94917.63;;;8.19
45976;BMP280;31696;42.668;23.322;2023-05-10T04:06:51;94921.69;;;8.27
45976;BMP280;31696;42.668;23.322;2023-05-10T04:08:51;94923.91;;;8.23
45976;BMP280;31696;42.668;23.322;2023-05-10T04:10:52;94916.59;;;8.48
45976;BMP280;31696;42.668;23.322;2023-05-10T04:12:52;94923.13;;;8.49
45976;BMP280;31696;42.668;23.322;2023-05-10T04:14:52;95142.53;;;10.05
45976;BMP280;31696;42.668;23.322;2023-05-10T04:16:53;94924.16;;;8.33
45976;BMP280;31696;42.668;23.322;2023-05-10T04:18:53;94925.59;;;8.08
45976;BMP280;31696;42.668;23.322;2023-05-10T04:20:54;94928.25;;;8.62
45976;BMP280;31696;42.668;23.322;2023-05-10T04:22:54;94922.81;;;8.06
45976;BMP280;31696;42.668;23.322;2023-05-10T04:24:55;94923.41;;;8.12
45976;BMP280;31696;42.668;23.322;2023-05-10T04:26:55;94930.53;;;8.32
45976;BMP280;31696;42.668;23.322;2023-05-10T04:28:55;94927.22;;;8.78
45976;BMP280;31696;42.668;23.322;2023-05-10T04:31:06;94925.44;;;8.73
45976;BMP280;31696;42.668;23.322;2023-05-10T04:33:06;94930.72;;;8.47
45976;BMP280;31696;42.668;23.322;2023-05-10T04:35:07;94926.16;;;8.40
45976;BMP280;31696;42.668;23.322;2023-05-10T04:37:07;94933.53;;;8.23
45976;BMP280;31696;42.668;23.322;2023-05-10T04:39:08;94937.28;;;8.48
45976;BMP280;31696;42.668;23.322;2023-05-10T04:41:10;94938.34;;;8.06
45976;BMP280;31696;42.668;23.322;2023-05-10T04:43:10;94924.19;;;8.20
45976;BMP280;31696;42.668;23.322;2023-05-10T04:45:10;94931.56;;;7.89
45976;BMP280;31696;42.668;23.322;2023-05-10T04:47:11;94925.19;;;8.30
45976;BMP280;31696;42.668;23.322;2023-05-10T04:49:13;94925.28;;;8.11
45976;BMP280;31696;42.668;23.322;2023-05-10T04:51:14;94926.22;;;7.87
45976;BMP280;31696;42.668;23.322;2023-05-10T04:53:14;94931.38;;;7.87
45976;BMP280;31696;42.668;23.322;2023-05-10T04:55:15;94920.56;;;7.89
45976;BMP280;31696;42.668;23.322;2023-05-10T04:57:15;94931.88;;;7.99
45976;BMP280;31696;42.668;23.322;2023-05-10T04:59:15;94930.56;;;7.53
45976;BMP280;31696;42.668;23.322;2023-05-10T05:01:16;94924.13;;;7.99
45976;BMP280;31696;42.668;23.322;2023-05-10T05:03:17;94930.94;;;8.10
45976;BMP280;31696;42.668;23.322;2023-05-10T05:05:17;94928.16;;;8.34
45976;BMP280;31696;42.668;23.322;2023-05-10T05:07:18;94925.69;;;8.28
45976;BMP280;31696;42.668;23.322;2023-05-10T05:09:18;94928.84;;;8.21
45976;BMP280;31696;42.668;23.322;2023-05-10T05:11:19;94935.97;;;8.55
45976;BMP280;31696;42.668;23.322;2023-05-10T05:13:19;94930.44;;;8.37
45976;BMP280;31696;42.668;23.322;2023-05-10T05:15:19;94935.28;;;8.41
45976;BMP280;31696;42.668;23.322;2023-05-10T05:17:20;94942.09;;;8.18
45976;BMP280;31696;42.668;23.322;2023-05-10T05:19:20;94933.66;;;8.51
45976;BMP280;31696;42.668;23.322;2023-05-10T05:21:21;94937.16;;;8.87
45976;BMP280;31696;42.668;23.322;2023-05-10T05:23:21;94928.38;;;8.23
45976;BMP280;31696;42.668;23.322;2023-05-10T05:25:24;94938.19;;;8.37
45976;BMP280;31696;42.668;23.322;2023-05-10T05:27:25;94179.06;;;8.56
45976;BMP280;31696;42.668;23.322;2023-05-10T05:29:27;94946.47;;;8.23
45976;BMP280;31696;42.668;23.322;2023-05-10T05:31:28;94942.28;;;8.33
45976;BMP280;31696;42.668;23.322;2023-05-10T05:33:28;94948.69;;;7.93
45976;BMP280;31696;42.668;23.322;2023-05-10T05:35:29;94947.47;;;8.20
45976;BMP280;31696;42.668;23.322;2023-05-10T05:37:29;94955.03;;;8.18
45976;BMP280;31696;42.668;23.322;2023-05-10T05:39:29;94955.00;;;8.31
45976;BMP280;31696;42.668;23.322;2023-05-10T05:41:30;94950.28;;;8.09
45976;BMP280;31696;42.668;23.322;2023-05-10T05:43:30;94953.56;;;8.56
45976;BMP280;31696;42.668;23.322;2023-05-10T05:45:30;94948.94;;;8.75
45976;BMP280;31696;42.668;23.322;2023-05-10T05:47:31;94951.63;;;8.36
45976;BMP280;31696;42.668;23.322;2023-05-10T05:49:31;94947.28;;;8.18
45976;BMP280;31696;42.668;23.322;2023-05-10T05:51:32;94958.81;;;8.30
45976;BMP280;31696;42.668;23.322;2023-05-10T05:53:32;94962.88;;;8.72
45976;BMP280;31696;42.668;23.322;2023-05-10T05:55:32;94956.22;;;8.30
45976;BMP280;31696;42.668;23.322;2023-05-10T05:57:33;94978.75;;;8.89
45976;BMP280;31696;42.668;23.322;2023-05-10T05:59:34;94966.25;;;8.80
45976;BMP280;31696;42.668;23.322;2023-05-10T06:01:34;94964.63;;;8.57
45976;BMP280;31696;42.668;23.322;2023-05-10T06:03:35;94963.59;;;8.26
45976;BMP280;31696;42.668;23.322;2023-05-10T06:05:35;94958.78;;;8.43
45976;BMP280;31696;42.668;23.322;2023-05-10T06:07:35;94967.09;;;8.62
45976;BMP280;31696;42.668;23.322;2023-05-10T06:09:36;94958.72;;;8.22
45976;BMP280;31696;42.668;23.322;2023-05-10T06:11:36;94967.72;;;8.89
45976;BMP280;31696;42.668;23.322;2023-05-10T06:13:37;94971.03;;;8.42
45976;BMP280;31696;42.668;23.322;2023-05-10T06:15:37;94959.97;;;8.42
45976;BMP280;31696;42.668;23.322;2023-05-10T06:17:37;94969.84;;;8.43
45976;BMP280;31696;42.668;23.322;2023-05-10T06:19:38;94978.97;;;8.58
45976;BMP280;31696;42.668;23.322;2023-05-10T06:21:39;94973.13;;;8.44
45976;BMP280;31696;42.668;23.322;2023-05-10T06:23:39;94979.78;;;8.86
45976;BMP280;31696;42.668;23.322;2023-05-10T06:25:39;94979.38;;;8.82
45976;BMP280;31696;42.668;23.322;2023-05-10T06:27:40;94968.75;;;8.39
45976;BMP280;31696;42.668;23.322;2023-05-10T06:29:40;94980.44;;;8.66
45976;BMP280;31696;42.668;23.322;2023-05-10T06:31:41;94978.69;;;8.48
45976;BMP280;31696;42.668;23.322;2023-05-10T06:33:41;94987.09;;;8.62
45976;BMP280;31696;42.668;23.322;2023-05-10T06:35:41;94977.09;;;8.58
45976;BMP280;31696;42.668;23.322;2023-05-10T06:37:42;94984.72;;;8.64
45976;BMP280;31696;42.668;23.322;2023-05-10T06:39:42;94973.28;;;8.59
45976;BMP280;31696;42.668;23.322;2023-05-10T06:41:42;94974.44;;;8.37
45976;BMP280;31696;42.668;23.322;2023-05-10T06:43:43;94980.63;;;8.68
45976;BMP280;31696;42.668;23.322;2023-05-10T06:45:43;94984.78;;;8.71
45976;BMP280;31696;42.668;23.322;2023-05-10T06:47:44;94981.00;;;9.06
45976;BMP280;31696;42.668;23.322;2023-05-10T06:49:44;94977.34;;;9.02
45976;BMP280;31696;42.668;23.322;2023-05-10T06:51:44;94977.59;;;9.11
45976;BMP280;31696;42.668;23.322;2023-05-10T06:53:45;94970.06;;;9.21
45976;BMP280;31696;42.668;23.322;2023-05-10T06:55:45;94979.91;;;8.81
45976;BMP280;31696;42.668;23.322;2023-05-10T06:57:46;94978.97;;;8.58
45976;BMP280;31696;42.668;23.322;2023-05-10T06:59:47;94981.09;;;8.80
45976;BMP280;31696;42.668;23.322;2023-05-10T07:01:48;94988.16;;;8.79
45976;BMP280;31696;42.668;23.322;2023-05-10T07:03:48;94977.22;;;8.73
45976;BMP280;31696;42.668;23.322;2023-05-10T07:05:48;94988.94;;;9.08
45976;BMP280;31696;42.668;23.322;2023-05-10T07:07:49;94994.69;;;8.93
45976;BMP280;31696;42.668;23.322;2023-05-10T07:09:49;94988.16;;;8.79
45976;BMP280;31696;42.668;23.322;2023-05-10T07:11:50;94991.78;;;8.97
45976;BMP280;31696;42.668;23.322;2023-05-10T07:13:50;94999.66;;;8.71
45976;BMP280;31696;42.668;23.322;2023-05-10T07:15:50;94987.19;;;8.69
45976;BMP280;31696;42.668;23.322;2023-05-10T07:17:51;94984.28;;;8.86
45976;BMP280;31696;42.668;23.322;2023-05-10T07:19:52;94991.19;;;8.70
45976;BMP280;31696;42.668;23.322;2023-05-10T07:21:52;94990.56;;;8.77
45976;BMP280;31696;42.668;23.322;2023-05-10T07:23:52;94989.41;;;8.65
45976;BMP280;31696;42.668;23.322;2023-05-10T07:25:53;94984.59;;;8.69
45976;BMP280;31696;42.668;23.322;2023-05-10T07:27:53;94995.16;;;8.71
45976;BMP280;31696;42.668;23.322;2023-05-10T07:29:54;94998.56;;;8.66
45976;BMP280;31696;42.668;23.322;2023-05-10T07:31:55;94999.91;;;8.80
45976;BMP280;31696;42.668;23.322;2023-05-10T07:33:55;94997.25;;;9.07
45976;BMP280;31696;42.668;23.322;2023-05-10T07:35:55;94995.69;;;8.90
45976;BMP280;31696;42.668;23.322;2023-05-10T07:37:56;95003.25;;;9.22
45976;BMP280;31696;42.668;23.322;2023-05-10T07:39:56;95001.72;;;9.27
45976;BMP280;31696;42.668;23.322;2023-05-10T07:41:56;94997.28;;;8.93
45976;BMP280;31696;42.668;23.322;2023-05-10T07:43:57;94993.41;;;9.21
45976;BMP280;31696;42.668;23.322;2023-05-10T07:45:57;95006.78;;;9.12
45976;BMP280;31696;42.668;23.322;2023-05-10T07:47:59;94997.09;;;8.91
45976;BMP280;31696;42.668;23.322;2023-05-10T07:50:00;94999.88;;;8.93
45976;BMP280;31696;42.668;23.322;2023-05-10T07:52:01;95004.81;;;9.05
45976;BMP280;31696;42.668;23.322;2023-05-10T07:54:02;94997.63;;;9.11
45976;BMP280;31696;42.668;23.322;2023-05-10T07:58:22;95004.34;;;8.93
45976;BMP280;31696;42.668;23.322;2023-05-10T08:00:23;95005.59;;;8.79
45976;BMP280;31696;42.668;23.322;2023-05-10T08:02:23;95003.63;;;9.06
45976;BMP280;31696;42.668;23.322;2023-05-10T08:04:23;94995.78;;;8.98
45976;BMP280;31696;42.668;23.322;2023-05-10T08:06:24;95009.81;;;9.23
45976;BMP280;31696;42.668;23.322;2023-05-10T08:08:26;95008.22;;;9.00
45976;BMP280;31696;42.668;23.322;2023-05-10T08:10:26;95006.97;;;9.14
45976;BMP280;31696;42.668;23.322;2023-05-10T08:12:27;95017.03;;;8.83
45976;BMP280;31696;42.668;23.322;2023-05-10T08:14:28;95013.41;;;9.00
45976;BMP280;31696;42.668;23.322;2023-05-10T08:16:28;95006.06;;;8.90
45976;BMP280;31696;42.668;23.322;2023-05-10T08:18:28;95011.63;;;8.94
45976;BMP280;31696;42.668;23.322;2023-05-10T08:20:29;95020.66;;;9.35
45976;BMP280;31696;42.668;23.322;2023-05-10T08:22:29;95008.44;;;9.02
45976;BMP280;31696;42.668;23.322;2023-05-10T08:24:30;95002.72;;;9.03
45976;BMP280;31696;42.668;23.322;2023-05-10T08:26:30;95021.66;;;9.32
45976;BMP280;31696;42.668;23.322;2023-05-10T08:28:31;95008.25;;;9.41
45976;BMP280;31696;42.668;23.322;2023-05-10T08:30:31;95016.84;;;9.15
45976;BMP280;31696;42.668;23.322;2023-05-10T08:32:31;95014.00;;;9.26
45976;BMP280;31696;42.668;23.322;2023-05-10T08:34:32;95014.56;;;9.12
45976;BMP280;31696;42.668;23.322;2023-05-10T08:36:33;95021.53;;;9.37
45976;BMP280;31696;42.668;23.322;2023-05-10T08:38:33;95011.91;;;9.25
45976;BMP280;31696;42.668;23.322;2023-05-10T08:40:33;95016.13;;;9.35
45976;BMP280;31696;42.668;23.322;2023-05-10T08:42:36;95014.88;;;9.29
45976;BMP280;31696;42.668;23.322;2023-05-10T08:44:40;95015.47;;;9.35
45976;BMP280;31696;42.668;23.322;2023-05-10T08:46:41;95016.59;;;9.47
45976;BMP280;31696;42.668;23.322;2023-05-10T08:48:45;95012.25;;;9.70
45976;BMP280;31696;42.668;23.322;2023-05-10T08:50:46;95020.59;;;9.76
45976;BMP280;31696;42.668;23.322;2023-05-10T08:52:47;95019.34;;;9.49
45976;BMP280;31696;42.668;23.322;2023-05-10T08:54:48;95015.63;;;9.37
45976;BMP280;31696;42.668;23.322;2023-05-10T08:56:48;95016.75;;;9.08
45976;BMP280;31696;42.668;23.322;2023-05-10T08:58:49;95016.31;;;9.17
45976;BMP280;31696;42.668;23.322;2023-05-10T09:00:50;95016.81;;;8.94
45976;BMP280;31696;42.668;23.322;2023-05-10T09:02:51;95014.44;;;8.97
45976;BMP280;31696;42.668;23.322;2023-05-10T09:04:51;95024.72;;;9.10
45976;BMP280;31696;42.668;23.322;2023-05-10T09:06:52;95019.91;;;8.93
45976;BMP280;31696;42.668;23.322;2023-05-10T09:08:52;95019.19;;;8.92
45976;BMP280;31696;42.668;23.322;2023-05-10T09:10:54;95023.00;;;8.91
45976;BMP280;31696;42.668;23.322;2023-05-10T09:12:56;95017.13;;;8.91
45976;BMP280;31696;42.668;23.322;2023-05-10T09:14:57;95017.75;;;8.84
45976;BMP280;31696;42.668;23.322;2023-05-10T09:16:58;95020.19;;;8.89
45976;BMP280;31696;42.668;23.322;2023-05-10T09:18:58;95024.28;;;9.19
45976;BMP280;31696;42.668;23.322;2023-05-10T09:20:59;95015.34;;;8.86
45976;BMP280;31696;42.668;23.322;2023-05-10T09:22:59;95014.25;;;9.15
45976;BMP280;31696;42.668;23.322;2023-05-10T09:25:09;95011.56;;;9.08
45976;BMP280;31696;42.668;23.322;2023-05-10T09:27:11;95013.47;;;8.73
45976;BMP280;31696;42.668;23.322;2023-05-10T09:29:11;95012.72;;;9.20
45976;BMP280;31696;42.668;23.322;2023-05-10T09:31:11;95011.47;;;9.13
45976;BMP280;31696;42.668;23.322;2023-05-10T09:33:12;95018.03;;;9.14
45976;BMP280;31696;42.668;23.322;2023-05-10T09:35:16;94999.06;;;9.19
45976;BMP280;31696;42.668;23.322;2023-05-10T09:37:17;95006.41;;;9.28
45976;BMP280;31696;42.668;23.322;2023-05-10T09:39:17;95008.94;;;9.41
45976;BMP280;31696;42.668;23.322;2023-05-10T09:41:18;95004.06;;;9.38
45976;BMP280;31696;42.668;23.322;2023-05-10T09:43:19;95004.59;;;9.65
45976;BMP280;31696;42.668;23.322;2023-05-10T09:45:20;95000.13;;;9.65
45976;BMP280;31696;42.668;23.322;2023-05-10T09:47:21;95003.31;;;9.30
45976;BMP280;31696;42.668;23.322;2023-05-10T09:49:21;95003.56;;;9.60
45976;BMP280;31696;42.668;23.322;2023-05-10T09:51:23;94999.25;;;9.63
45976;BMP280;31696;42.668;23.322;2023-05-10T09:53:23;94997.59;;;9.73
45976;BMP280;31696;42.668;23.322;2023-05-10T09:55:24;95000.88;;;9.73
45976;BMP280;31696;42.668;23.322;2023-05-10T09:57:25;94984.22;;;9.61
45976;BMP280;31696;42.668;23.322;2023-05-10T09:59:26;94995.69;;;9.73
45976;BMP280;31696;42.668;23.322;2023-05-10T10:01:27;94992.53;;;9.67
45976;BMP280;31696;42.668;23.322;2023-05-10T10:03:27;94995.31;;;9.69
45976;BMP280;31696;42.668;23.322;2023-05-10T10:05:32;94993.44;;;9.49
45976;BMP280;31696;42.668;23.322;2023-05-10T10:07:33;94980.44;;;9.70
45976;BMP280;31696;42.668;23.322;2023-05-10T10:09:34;94987.81;;;9.86
45976;BMP280;31696;42.668;23.322;2023-05-10T10:11:35;94978.91;;;9.46
45976;BMP280;31696;42.668;23.322;2023-05-10T10:13:36;94978.72;;;9.72
45976;BMP280;31696;42.668;23.322;2023-05-10T10:15:36;94983.56;;;9.68
45976;BMP280;31696;42.668;23.322;2023-05-10T10:17:37;94976.19;;;10.16
45976;BMP280;31696;42.668;23.322;2023-05-10T10:19:39;94962.19;;;9.83
45976;BMP280;31696;42.668;23.322;2023-05-10T10:21:39;94963.34;;;10.10
45976;BMP280;31696;42.668;23.322;2023-05-10T10:23:40;94978.53;;;9.98
45976;BMP280;31696;42.668;23.322;2023-05-10T10:25:40;94973.88;;;9.97
45976;BMP280;31696;42.668;23.322;2023-05-10T10:29:51;94980.84;;;9.81
45976;BMP280;31696;42.668;23.322;2023-05-10T10:34:00;94987.16;;;9.65
45976;BMP280;31696;42.668;23.322;2023-05-10T10:36:02;94981.50;;;9.74
45976;BMP280;31696;42.668;23.322;2023-05-10T10:38:03;94975.84;;;10.12
45976;BMP280;31696;42.668;23.322;2023-05-10T10:40:22;94977.22;;;10.13
45976;BMP280;31696;42.668;23.322;2023-05-10T10:42:43;94970.56;;;9.96
45976;BMP280;31696;42.668;23.322;2023-05-10T10:44:43;94978.97;;;9.82
45976;BMP280;31696;42.668;23.322;2023-05-10T10:47:01;94981.72;;;10.12
45976;BMP280;31696;42.668;23.322;2023-05-10T10:49:09;94980.38;;;9.90
45976;BMP280;31696;42.668;23.322;2023-05-10T10:51:09;94979.97;;;10.15
45976;BMP280;31696;42.668;23.322;2023-05-10T10:53:10;94981.09;;;10.27
45976;BMP280;31696;42.668;23.322;2023-05-10T10:55:14;94972.09;;;10.35
45976;BMP280;31696;42.668;23.322;2023-05-10T10:57:15;94971.81;;;10.39
45976;BMP280;31696;42.668;23.322;2023-05-10T10:59:26;94978.03;;;10.51
45976;BMP280;31696;42.668;23.322;2023-05-10T11:01:26;94975.84;;;10.55
45976;BMP280;31696;42.668;23.322;2023-05-10T11:03:32;94979.44;;;10.52
45976;BMP280;31696;42.668;23.322;2023-05-10T11:05:34;94978.38;;;10.40
45976;BMP280;31696;42.668;23.322;2023-05-10T11:07:35;94963.06;;;10.21
45976;BMP280;31696;42.668;23.322;2023-05-10T11:09:39;94977.00;;;10.39
45976;BMP280;31696;42.668;23.322;2023-05-10T11:11:50;94965.50;;;10.27
45976;BMP280;31696;42.668;23.322;2023-05-10T11:13:50;94970.44;;;10.53
45976;BMP280;31696;42.668;23.322;2023-05-10T11:15:51;94974.78;;;10.58
45976;BMP280;31696;42.668;23.322;2023-05-10T11:17:52;94969.78;;;10.68
45976;BMP280;31696;42.668;23.322;2023-05-10T11:20:13;94962.84;;;10.63
45976;BMP280;31696;42.668;23.322;2023-05-10T11:22:14;94959.66;;;10.41
45976;BMP280;31696;42.668;23.322;2023-05-10T11:24:15;94975.31;;;10.64
45976;BMP280;31696;42.668;23.322;2023-05-10T11:26:16;94976.53;;;10.63
45976;BMP280;31696;42.668;23.322;2023-05-10T11:28:17;94976.34;;;10.61
45976;BMP280;31696;42.668;23.322;2023-05-10T11:30:18;94971.13;;;10.46
45976;BMP280;31696;42.668;23.322;2023-05-10T11:32:19;94968.16;;;10.42
45976;BMP280;31696;42.668;23.322;2023-05-10T11:34:22;94974.75;;;10.43
45976;BMP280;31696;42.668;23.322;2023-05-10T11:38:23;94964.63;;;10.90
45976;BMP280;31696;42.668;23.322;2023-05-10T11:40:24;94982.28;;;10.84
45976;BMP280;31696;42.668;23.322;2023-05-10T11:42:24;94973.94;;;10.63
45976;BMP280;31696;42.668;23.322;2023-05-10T11:44:31;94970.81;;;10.72
45976;BMP280;31696;42.668;23.322;2023-05-10T11:46:32;94971.44;;;10.42
45976;BMP280;31696;42.668;23.322;2023-05-10T11:48:32;94981.38;;;10.59
45976;BMP280;31696;42.668;23.322;2023-05-10T11:50:33;94976.84;;;10.44
45976;BMP280;31696;42.668;23.322;2023-05-10T11:52:36;94978.78;;;10.59
45976;BMP280;31696;42.668;23.322;2023-05-10T11:54:50;94973.50;;;10.29
45976;BMP280;31696;42.668;23.322;2023-05-10T11:56:51;94967.69;;;10.59
45976;BMP280;31696;42.668;23.322;2023-05-10T11:58:56;94971.44;;;10.35
45976;BMP280;31696;42.668;23.322;2023-05-10T12:00:57;94974.25;;;10.52
45976;BMP280;31696;42.668;23.322;2023-05-10T12:03:00;94974.31;;;10.82
45976;BMP280;31696;42.668;23.322;2023-05-10T12:05:00;94970.88;;;10.80